Time;durP1;ratioP1;P1;durP2;ratioP2;P2;SDS_P1;SDS_P2;PMS_P1;PMS_P2;Temp;Humidity;BMP_temperature;BMP_pressure;BME280_temperature;BME280_humidity;BME280_pressure;Samples;Min_cycle;Max_cycle;Signal;HPM_P1;HPM_P2
2023/05/26 00:00:06;;;;;;;3.47;1.63;;;;;;;31.46;23.34;100277.59;4852910;29;20054;-78
2023/05/26 00:02:36;;;;;;;5.32;2.10;;;;;;;31.47;24.15;100270.41;4861660;29;20049;-80
2023/05/26 00:05:06;;;;;;;3.92;1.75;;;;;;;31.47;25.81;100271.31;4849377;29;20556;-78
2023/05/26 00:07:34;;;;;;;3.58;1.90;;;;;;;31.43;23.27;100272.47;4852190;29;20116;-78
2023/05/26 00:10:05;;;;;;;3.47;1.92;;;;;;;31.43;23.51;100267.09;4860395;29;20053;-78
2023/05/26 00:12:33;;;;;;;2.72;1.88;;;;;;;31.44;22.57;100263.47;4849602;29;20096;-79
2023/05/26 00:15:02;;;;;;;2.45;1.90;;;;;;;31.45;24.77;100267.88;4848599;29;20050;-81
2023/05/26 00:17:31;;;;;;;2.45;1.75;;;;;;;31.43;23.98;100264.44;4857466;29;20134;-79
2023/05/26 00:20:00;;;;;;;3.63;2.00;;;;;;;31.29;22.61;100243.03;4859941;29;20061;-78
2023/05/26 00:22:29;;;;;;;7.47;2.10;;;;;;;31.34;22.71;100259.66;4855053;29;20765;-77
2023/05/26 00:24:58;;;;;;;3.13;1.90;;;;;;;31.35;24.16;100256.00;4857602;29;20500;-80
2023/05/26 00:27:28;;;;;;;2.92;1.65;;;;;;;31.29;24.77;100249.25;4851250;29;20535;-78
2023/05/26 00:29:58;;;;;;;4.22;1.80;;;;;;;31.24;24.86;100254.03;4854826;29;20617;-83
2023/05/26 00:32:26;;;;;;;3.95;2.00;;;;;;;31.13;23.36;100259.25;4848834;29;20057;-78
2023/05/26 00:34:55;;;;;;;5.70;1.88;;;;;;;31.09;23.24;100250.53;4853625;29;20945;-78
2023/05/26 00:37:25;;;;;;;6.00;2.05;;;;;;;31.05;24.12;100248.16;4857546;29;20065;-79
2023/05/26 00:39:53;;;;;;;4.28;2.25;;;;;;;31.03;23.77;100248.25;4860840;29;20052;-78
2023/05/26 00:42:23;;;;;;;4.35;1.80;;;;;;;31.00;22.56;100240.44;4855498;29;20057;-77
2023/05/26 00:44:54;;;;;;;4.68;1.88;;;;;;;30.95;22.77;100242.56;4859625;29;20141;-84
2023/05/26 00:47:24;;;;;;;3.30;1.80;;;;;;;30.88;21.97;100252.78;4854658;29;20071;-76
2023/05/26 00:49:54;;;;;;;2.40;1.80;;;;;;;30.80;25.03;100248.84;4864884;29;20053;-85
2023/05/26 00:52:24;;;;;;;3.92;1.80;;;;;;;30.68;22.50;100245.13;4870897;29;20462;-84
2023/05/26 00:54:52;;;;;;;3.15;1.77;;;;;;;30.63;21.98;100247.25;4858518;29;20057;-81
2023/05/26 00:57:22;;;;;;;3.00;1.85;;;;;;;30.59;23.77;100235.88;4858813;29;20080;-83
2023/05/26 00:59:51;;;;;;;5.50;2.20;;;;;;;30.57;24.26;100240.44;4859856;29;20477;-81
2023/05/26 01:02:22;;;;;;;4.13;2.20;;;;;;;30.50;24.12;100243.59;4861678;29;20042;-79
2023/05/26 01:04:52;;;;;;;3.63;1.90;;;;;;;30.44;23.37;100247.50;4851952;29;20398;-81
2023/05/26 01:07:21;;;;;;;3.35;2.10;;;;;;;30.38;23.61;100239.88;4856063;29;20419;-82
2023/05/26 01:09:51;;;;;;;3.50;1.80;;;;;;;30.33;23.43;100236.63;4863954;29;20449;-80
2023/05/26 01:12:27;;;;;;;4.20;2.15;;;;;;;30.28;22.91;100231.56;4860698;29;20060;-82
2023/05/26 01:15:01;;;;;;;4.20;2.10;;;;;;;30.26;23.56;100234.34;4858443;29;20049;-82
2023/05/26 01:17:36;;;;;;;2.58;2.03;;;;;;;30.22;24.63;100243.44;4852002;29;20481;-78
2023/05/26 01:20:13;;;;;;;3.45;2.08;;;;;;;30.16;23.35;100235.81;4855154;29;20050;-78
2023/05/26 01:23:20;;;;;;;3.00;2.10;;;;;;;30.12;24.73;100242.28;4852630;29;20052;-79
2023/05/26 01:26:07;;;;;;;5.70;2.40;;;;;;;30.05;24.41;100246.25;4860291;29;20434;-81
2023/05/26 01:28:42;;;;;;;4.75;1.73;;;;;;;30.02;24.63;100238.44;4849799;29;20804;-85
2023/05/26 01:31:12;;;;;;;3.88;2.25;;;;;;;30.00;24.62;100243.00;4856937;29;20046;-80
2023/05/26 01:33:41;;;;;;;3.22;2.10;;;;;;;29.95;24.07;100250.44;4854786;29;20216;-81
2023/05/26 01:36:09;;;;;;;3.97;2.17;;;;;;;29.90;24.33;100242.72;4856702;29;20629;-83
2023/05/26 01:38:39;;;;;;;3.22;1.95;;;;;;;29.88;25.41;100238.44;4860788;29;20064;-85
2023/05/26 01:41:16;;;;;;;4.07;2.25;;;;;;;29.80;24.15;100236.19;4854943;29;20056;-81
2023/05/26 01:43:52;;;;;;;3.58;2.28;;;;;;;29.74;25.46;100236.56;4858651;29;20072;-80
2023/05/26 01:46:27;;;;;;;3.88;2.20;;;;;;;29.71;26.33;100244.72;4853237;29;20520;-82
2023/05/26 01:49:00;;;;;;;4.93;2.50;;;;;;;29.67;25.23;100235.19;4852903;29;20521;-82
2023/05/26 01:51:35;;;;;;;2.40;2.08;;;;;;;29.69;26.10;100235.97;4849778;29;20070;-81
2023/05/26 01:54:16;;;;;;;3.25;1.95;;;;;;;29.66;26.57;100242.31;4855480;29;20090;-82
2023/05/26 01:56:53;;;;;;;2.85;2.35;;;;;;;29.61;25.32;100234.56;4855832;29;20054;-81
2023/05/26 01:59:24;;;;;;;5.07;2.30;;;;;;;29.56;25.60;100239.31;4859760;29;20053;-81
2023/05/26 02:01:53;;;;;;;3.65;2.83;;;;;;;29.50;25.67;100246.81;4859430;29;20056;-79
2023/05/26 02:04:21;;;;;;;5.07;2.70;;;;;;;29.45;26.21;100237.25;4859900;29;20049;-78
2023/05/26 02:06:51;;;;;;;8.23;2.72;;;;;;;29.39;26.00;100242.06;4863820;29;20512;-80
2023/05/26 02:09:20;;;;;;;3.20;2.50;;;;;;;29.32;26.18;100235.38;4855616;29;20049;-79
2023/05/26 02:11:48;;;;;;;3.47;2.95;;;;;;;29.25;25.80;100240.19;4859222;29;20057;-83
2023/05/26 02:14:17;;;;;;;3.50;2.85;;;;;;;29.20;26.63;100242.28;4850788;29;20057;-84
2023/05/26 02:16:47;;;;;;;3.90;3.13;;;;;;;29.14;27.20;100243.50;4855833;29;20053;-78
2023/05/26 02:19:16;;;;;;;5.20;3.40;;;;;;;29.06;26.46;100247.50;4859116;29;20053;-86
2023/05/26 02:21:45;;;;;;;4.43;3.22;;;;;;;28.99;26.72;100253.16;4857139;29;20116;-81
2023/05/26 02:24:13;;;;;;;6.00;3.38;;;;;;;28.90;26.68;100256.31;4858167;29;20070;-80
2023/05/26 02:26:42;;;;;;;4.32;3.22;;;;;;;28.81;27.20;100249.69;4860561;29;20117;-78
2023/05/26 02:29:11;;;;;;;4.03;3.13;;;;;;;28.72;26.88;100254.66;4863430;29;20053;-79
2023/05/26 02:31:40;;;;;;;4.40;3.33;;;;;;;28.65;27.76;100261.25;4856363;29;20129;-78
2023/05/26 02:34:10;;;;;;;4.82;3.83;;;;;;;28.56;27.30;100252.81;4866186;29;20081;-79
2023/05/26 02:36:38;;;;;;;5.32;3.40;;;;;;;28.52;29.40;100263.69;4862367;29;20078;-80
2023/05/26 02:39:07;;;;;;;4.95;3.65;;;;;;;28.44;29.58;100255.25;4853983;29;20141;-80
2023/05/26 02:41:36;;;;;;;6.35;4.00;;;;;;;28.38;29.84;100264.38;4856257;29;20037;-80
2023/05/26 02:44:05;;;;;;;4.07;3.30;;;;;;;28.28;29.73;100257.84;4860061;29;20057;-83
2023/05/26 02:46:33;;;;;;;6.85;3.80;;;;;;;28.19;28.81;100265.34;4863333;29;20045;-81
2023/05/26 02:49:02;;;;;;;5.65;3.55;;;;;;;28.06;28.49;100280.25;4853491;29;20057;-80
2023/05/26 02:51:33;;;;;;;7.53;3.70;;;;;;;27.96;28.19;100282.47;4856435;29;20098;-83
2023/05/26 02:54:01;;;;;;;5.87;4.23;;;;;;;27.88;28.71;100279.38;4852445;29;20066;-83
2023/05/26 02:56:30;;;;;;;7.38;3.88;;;;;;;27.81;30.11;100274.38;4859095;29;20495;-81
2023/05/26 02:58:58;;;;;;;6.47;3.65;;;;;;;27.71;30.83;100276.66;4856794;29;20053;-80
2023/05/26 03:01:27;;;;;;;5.63;3.55;;;;;;;27.58;30.11;100273.75;4857678;29;20105;-79
2023/05/26 03:03:56;;;;;;;4.75;3.65;;;;;;;27.48;29.17;100280.44;4846132;29;20134;-81
2023/05/26 03:06:24;;;;;;;5.35;3.63;;;;;;;27.39;30.03;100278.22;4855503;29;20053;-82
2023/05/26 03:08:57;;;;;;;5.90;4.13;;;;;;;27.31;30.22;100281.25;4855298;29;20041;-83
2023/05/26 03:11:26;;;;;;;5.30;3.92;;;;;;;27.24;30.45;100285.13;4850460;29;20489;-83
2023/05/26 03:13:55;;;;;;;6.38;4.10;;;;;;;27.16;31.21;100283.63;4864442;29;20056;-81
2023/05/26 03:16:24;;;;;;;6.78;4.15;;;;;;;27.09;31.79;100291.97;4860124;29;20053;-81
2023/05/26 03:18:53;;;;;;;4.50;3.67;;;;;;;27.02;31.80;100290.53;4855232;29;20050;-79
2023/05/26 03:21:21;;;;;;;5.95;4.30;;;;;;;26.93;30.97;100295.31;4859237;29;20050;-80
2023/05/26 03:23:50;;;;;;;5.72;4.32;;;;;;;26.85;32.38;100291.31;4873352;29;20455;-83
2023/05/26 03:26:22;;;;;;;5.25;4.28;;;;;;;26.76;31.82;100300.56;4863283;29;20063;-79
2023/05/26 03:28:50;;;;;;;5.22;4.53;;;;;;;26.67;31.54;100298.31;4854583;29;20145;-81
2023/05/26 03:31:19;;;;;;;6.78;4.53;;;;;;;26.59;30.81;100300.44;4854624;29;20049;-80
2023/05/26 03:33:47;;;;;;;5.55;4.30;;;;;;;26.49;31.27;100303.47;4856696;29;20133;-79
2023/05/26 03:36:16;;;;;;;5.45;4.28;;;;;;;26.39;30.87;100312.75;4853813;29;20052;-80
2023/05/26 03:38:44;;;;;;;5.25;4.63;;;;;;;26.26;33.09;100307.13;4854853;29;20133;-81
2023/05/26 03:41:13;;;;;;;5.90;4.75;;;;;;;26.15;32.82;100309.34;4858304;29;20057;-82
2023/05/26 03:43:43;;;;;;;5.25;4.35;;;;;;;26.04;31.86;100296.53;4849411;29;20053;-81
2023/05/26 03:46:12;;;;;;;6.55;4.70;;;;;;;25.97;31.55;100304.81;4851657;29;20050;-81
2023/05/26 03:48:40;;;;;;;7.68;4.72;;;;;;;25.89;32.42;100305.16;4856512;29;20053;-80
2023/05/26 03:51:09;;;;;;;7.53;4.93;;;;;;;25.82;32.11;100311.59;4847299;29;20459;-81
2023/05/26 03:53:38;;;;;;;7.60;4.53;;;;;;;25.75;34.03;100302.16;4856777;29;20053;-79
2023/05/26 03:56:07;;;;;;;6.63;4.82;;;;;;;25.65;33.22;100306.97;4869225;29;20077;-83
2023/05/26 03:58:38;;;;;;;5.93;4.90;;;;;;;25.59;32.78;100313.38;4856691;29;20124;-83
2023/05/26 04:01:09;;;;;;;6.03;4.90;;;;;;;25.52;33.31;100314.56;4851698;29;20106;-84
2023/05/26 04:03:38;;;;;;;6.63;4.60;;;;;;;25.45;33.73;100310.44;4863428;29;20053;-86
2023/05/26 04:06:07;;;;;;;6.28;4.65;;;;;;;25.38;32.90;100320.41;4863170;29;20045;-84
2023/05/26 04:08:35;;;;;;;6.32;4.45;;;;;;;25.31;33.22;100325.97;4861579;29;20061;-85
2023/05/26 04:11:04;;;;;;;6.75;4.80;;;;;;;25.26;33.04;100334.94;4861154;29;20052;-84
2023/05/26 04:13:34;;;;;;;5.32;4.22;;;;;;;25.20;34.42;100332.56;4862487;29;20438;-82
2023/05/26 04:16:04;;;;;;;7.22;4.75;;;;;;;25.14;34.48;100337.19;4870932;29;20045;-81
2023/05/26 04:18:36;;;;;;;6.00;4.10;;;;;;;25.09;34.62;100342.66;4869291;29;20497;-83
2023/05/26 04:21:04;;;;;;;5.20;4.32;;;;;;;25.03;33.58;100348.16;4869990;29;20057;-84
2023/05/26 04:23:33;;;;;;;7.18;4.63;;;;;;;24.94;32.99;100343.19;4867309;29;20056;-84
2023/05/26 04:26:03;;;;;;;5.63;4.50;;;;;;;24.87;34.08;100351.34;4864625;29;20528;-85
2023/05/26 04:28:33;;;;;;;6.43;4.38;;;;;;;24.75;33.93;100349.16;4871604;29;20113;-84
2023/05/26 04:31:03;;;;;;;5.22;4.07;;;;;;;24.64;34.64;100351.31;4867398;29;20065;-85
2023/05/26 04:33:33;;;;;;;6.00;4.55;;;;;;;24.56;34.60;100354.25;4859872;29;20678;-86
2023/05/26 04:36:02;;;;;;;5.90;4.20;;;;;;;24.52;34.92;100359.69;4865995;29;20064;-85
2023/05/26 04:38:31;;;;;;;5.32;4.32;;;;;;;24.47;34.65;100359.84;4875974;29;20049;-84
2023/05/26 04:41:00;;;;;;;6.28;5.03;;;;;;;24.38;33.66;100355.69;4885417;29;20137;-82
2023/05/26 04:43:29;;;;;;;8.07;5.03;;;;;;;24.24;34.26;100368.53;4868214;29;20064;-83
2023/05/26 04:45:57;;;;;;;6.45;5.00;;;;;;;24.12;34.06;100366.28;4860436;29;20176;-83
2023/05/26 04:48:26;;;;;;;6.90;4.90;;;;;;;24.02;35.19;100373.66;4865513;29;20052;-83
2023/05/26 04:50:56;;;;;;;7.63;4.63;;;;;;;23.95;35.25;100372.97;4868126;29;20494;-84
2023/05/26 04:53:25;;;;;;;5.38;4.10;;;;;;;23.90;34.98;100382.84;4867530;29;20076;-83
2023/05/26 04:55:53;;;;;;;5.60;4.30;;;;;;;23.85;35.55;100373.34;4860902;29;20053;-85
2023/05/26 04:58:22;;;;;;;5.35;4.43;;;;;;;23.79;35.47;100371.72;4860148;29;20064;-84
2023/05/26 05:00:51;;;;;;;4.70;3.90;;;;;;;23.70;35.03;100385.19;4861078;29;20057;-81
2023/05/26 05:03:20;;;;;;;7.55;4.45;;;;;;;23.60;35.73;100387.25;4861659;29;20085;-82
2023/05/26 05:05:49;;;;;;;5.10;3.88;;;;;;;23.50;35.73;100386.69;4852207;29;20296;-80
2023/05/26 05:08:19;;;;;;;4.60;3.17;;;;;;;23.44;37.86;100386.84;4856538;29;20457;-81
2023/05/26 05:10:48;;;;;;;8.00;3.78;;;;;;;23.40;38.90;100390.47;4857682;29;20045;-80
2023/05/26 05:13:16;;;;;;;6.43;3.42;;;;;;;23.34;38.34;100394.19;4863609;29;20053;-80
2023/05/26 05:15:45;;;;;;;5.10;3.58;;;;;;;23.33;39.02;100388.94;4862716;29;20049;-86
2023/05/26 05:18:13;;;;;;;5.25;3.80;;;;;;;23.31;39.80;100396.03;4854094;29;20049;-84
2023/05/26 05:20:43;;;;;;;6.05;3.60;;;;;;;23.26;39.44;100390.88;4874386;29;20060;-87
2023/05/26 05:23:12;;;;;;;6.93;3.92;;;;;;;23.24;40.18;100399.75;4858652;29;20046;-83
2023/05/26 05:25:43;;;;;;;7.38;3.58;;;;;;;23.13;39.32;100395.63;4861279;29;20041;-80
2023/05/26 05:28:12;;;;;;;5.32;3.80;;;;;;;23.02;38.88;100392.47;4865390;29;20054;-82
2023/05/26 05:30:40;;;;;;;5.18;3.30;;;;;;;22.96;39.59;100395.22;4865992;29;20054;-82
2023/05/26 05:33:09;;;;;;;4.70;3.80;;;;;;;22.89;40.82;100393.66;4861132;29;20049;-82
2023/05/26 05:35:37;;;;;;;5.85;4.00;;;;;;;22.80;41.07;100403.53;4859314;29;20181;-80
2023/05/26 05:38:06;;;;;;;6.68;3.83;;;;;;;22.75;40.26;100397.53;4854481;29;20050;-81
2023/05/26 05:40:35;;;;;;;7.28;4.00;;;;;;;22.69;39.80;100400.31;4853753;29;20054;-79
2023/05/26 05:43:05;;;;;;;8.85;3.70;;;;;;;22.63;40.62;100397.88;4858735;29;20061;-82
2023/05/26 05:45:34;;;;;;;7.88;4.22;;;;;;;22.55;40.45;100397.19;4857919;29;20210;-80
2023/05/26 05:48:02;;;;;;;5.30;3.75;;;;;;;22.51;41.19;100398.16;4852932;29;20046;-81
2023/05/26 05:50:31;;;;;;;6.80;3.67;;;;;;;22.44;41.42;100401.88;4857861;29;20108;-81
2023/05/26 05:53:00;;;;;;;6.55;3.95;;;;;;;22.37;41.68;100401.16;4856006;29;20084;-78
2023/05/26 05:55:29;;;;;;;6.57;4.47;;;;;;;22.26;41.93;100388.22;4852511;29;20168;-80
2023/05/26 05:57:58;;;;;;;6.10;3.63;;;;;;;22.19;42.68;100394.53;4859011;29;20045;-81
2023/05/26 06:00:28;;;;;;;6.82;3.53;;;;;;;22.14;42.80;100399.03;4861142;29;20082;-80
2023/05/26 06:02:57;;;;;;;6.50;4.32;;;;;;;22.06;43.05;100393.97;4860976;29;20053;-82
2023/05/26 06:05:25;;;;;;;6.28;3.22;;;;;;;22.01;43.07;100392.31;4864357;29;20487;-79
2023/05/26 06:07:54;;;;;;;6.13;3.28;;;;;;;21.96;43.36;100389.78;4854015;29;20627;-84
2023/05/26 06:10:22;;;;;;;5.60;3.15;;;;;;;21.91;44.08;100389.91;4862684;29;20505;-81
2023/05/26 06:12:51;;;;;;;6.43;2.80;;;;;;;21.86;44.18;100396.19;4882083;29;20126;-81
2023/05/26 06:15:21;;;;;;;5.13;2.78;;;;;;;21.81;44.64;100398.94;4866650;29;20037;-82
2023/05/26 06:17:51;;;;;;;8.63;3.03;;;;;;;21.78;44.87;100396.34;4856302;29;20496;-80
2023/05/26 06:20:20;;;;;;;4.80;3.33;;;;;;;21.73;44.80;100393.81;4856804;29;20046;-80
2023/05/26 06:22:49;;;;;;;5.90;3.25;;;;;;;21.72;45.32;100407.03;4862275;29;20056;-80
2023/05/26 06:25:18;;;;;;;7.57;3.47;;;;;;;21.69;45.28;100399.19;4857027;29;20665;-80
2023/05/26 06:27:46;;;;;;;5.45;2.55;;;;;;;21.63;45.50;100392.31;4863892;29;20064;-82
2023/05/26 06:30:15;;;;;;;6.25;2.20;;;;;;;21.59;45.30;100389.78;4857330;29;20048;-80
2023/05/26 06:32:44;;;;;;;8.70;2.63;;;;;;;21.54;45.26;100393.38;4858481;29;20045;-81
2023/05/26 06:35:14;;;;;;;5.75;2.63;;;;;;;21.52;45.70;100403.06;4849049;29;20394;-79
2023/05/26 06:37:43;;;;;;;5.72;2.28;;;;;;;21.48;46.29;100397.88;4867850;29;20101;-82
2023/05/26 06:40:12;;;;;;;5.13;2.72;;;;;;;21.41;47.06;100401.56;4851150;29;20060;-83
2023/05/26 06:42:41;;;;;;;4.88;2.05;;;;;;;21.33;47.13;100414.84;4851562;29;20046;-83
2023/05/26 06:45:10;;;;;;;6.05;2.55;;;;;;;21.27;46.91;100409.69;4857230;29;20051;-83
2023/05/26 06:47:39;;;;;;;4.97;3.00;;;;;;;21.23;46.50;100410.66;4847000;29;20049;-84
2023/05/26 06:50:08;;;;;;;7.05;3.10;;;;;;;21.21;46.51;100407.19;4849208;29;20042;-84
2023/05/26 06:52:39;;;;;;;5.15;2.58;;;;;;;21.17;48.33;100414.28;4857312;29;20050;-83
2023/05/26 06:55:08;;;;;;;5.95;2.35;;;;;;;21.13;47.60;100423.13;4855606;29;20057;-83
2023/05/26 06:57:36;;;;;;;6.10;2.80;;;;;;;21.07;48.55;100424.13;4860775;29;20172;-83
2023/05/26 07:00:06;;;;;;;5.13;2.05;;;;;;;21.02;47.87;100425.09;4851608;29;20058;-81
2023/05/26 07:02:35;;;;;;;4.20;2.40;;;;;;;20.98;47.94;100432.19;4861346;29;20403;-83
2023/05/26 07:05:04;;;;;;;5.25;2.50;;;;;;;20.96;47.18;100433.97;4856116;29;20053;-80
2023/05/26 07:07:32;;;;;;;3.65;2.08;;;;;;;20.93;46.64;100434.00;4857453;29;20105;-83
2023/05/26 07:10:02;;;;;;;5.78;2.80;;;;;;;20.88;48.58;100434.09;4865269;29;20508;-81
2023/05/26 07:12:31;;;;;;;4.15;2.47;;;;;;;20.86;47.13;100435.88;4855868;29;20417;-81
2023/05/26 07:15:02;;;;;;;4.13;2.00;;;;;;;20.85;47.09;100436.78;4856558;29;20053;-82
2023/05/26 07:17:31;;;;;;;3.70;2.13;;;;;;;20.86;47.91;100440.28;4849977;29;20049;-81
2023/05/26 07:19:59;;;;;;;4.05;2.03;;;;;;;20.85;48.53;100439.41;4858957;29;20056;-84
2023/05/26 07:22:28;;;;;;;5.18;2.22;;;;;;;20.79;48.36;100439.53;4854996;29;20072;-82
2023/05/26 07:24:57;;;;;;;5.13;2.60;;;;;;;20.75;47.56;100443.09;4862796;29;20049;-82
2023/05/26 07:27:27;;;;;;;6.95;2.63;;;;;;;20.73;48.08;100446.66;4858698;29;20160;-82
2023/05/26 07:29:56;;;;;;;5.85;2.50;;;;;;;20.70;47.51;100445.81;4852717;29;20552;-82
2023/05/26 07:32:24;;;;;;;4.15;2.25;;;;;;;20.70;47.19;100447.56;4847732;29;20778;-82
2023/05/26 07:34:53;;;;;;;5.88;2.30;;;;;;;20.65;48.11;100442.38;4853808;29;20046;-83
2023/05/26 07:37:22;;;;;;;4.90;2.15;;;;;;;20.63;48.72;100448.56;4849985;29;20078;-83
2023/05/26 07:39:51;;;;;;;5.05;2.53;;;;;;;20.55;48.11;100445.16;4857715;29;20094;-82
2023/05/26 07:42:19;;;;;;;5.82;2.60;;;;;;;20.50;48.55;100453.13;4852335;29;20715;-83
2023/05/26 07:44:49;;;;;;;5.80;2.35;;;;;;;20.42;49.52;100447.13;4847995;29;20049;-81
2023/05/26 07:47:18;;;;;;;4.53;2.30;;;;;;;20.37;49.55;100456.84;4852777;29;20456;-83
2023/05/26 07:49:47;;;;;;;6.78;2.25;;;;;;;20.30;49.33;100451.69;4853267;29;20057;-82
2023/05/26 07:52:16;;;;;;;10.27;3.17;;;;;;;20.27;49.50;100451.75;4845684;29;20053;-82
2023/05/26 07:54:51;;;;;;;5.80;2.20;;;;;;;20.22;49.86;100464.06;4850508;29;20065;-83
2023/05/26 07:57:20;;;;;;;4.10;2.22;;;;;;;20.19;51.41;100463.25;4830830;29;20065;-82
2023/05/26 07:59:50;;;;;;;7.55;2.72;;;;;;;20.16;51.10;100460.66;4836469;29;20047;-80
2023/05/26 08:02:19;;;;;;;5.43;2.42;;;;;;;20.13;50.52;100468.59;4839368;29;20042;-82
2023/05/26 08:04:48;;;;;;;4.30;2.72;;;;;;;20.06;51.45;100460.78;4839733;29;20046;-82
2023/05/26 08:07:16;;;;;;;4.75;2.20;;;;;;;20.00;53.29;100467.91;4842304;29;20117;-83
2023/05/26 08:09:45;;;;;;;6.57;2.13;;;;;;;19.97;55.33;100470.56;4838785;29;20180;-81
2023/05/26 08:12:14;;;;;;;4.07;2.35;;;;;;;19.92;53.85;100470.63;4831405;29;20049;-82
2023/05/26 08:14:43;;;;;;;7.30;2.70;;;;;;;19.85;53.01;100464.56;4834908;29;20642;-81
2023/05/26 08:17:13;;;;;;;8.27;3.08;;;;;;;19.81;52.31;100470.78;4834722;29;20050;-82
2023/05/26 08:19:42;;;;;;;4.18;2.63;;;;;;;19.79;52.04;100476.91;4835504;29;20057;-83
2023/05/26 08:22:10;;;;;;;4.53;2.25;;;;;;;19.71;53.14;100476.16;4830707;29;20149;-82
2023/05/26 08:24:39;;;;;;;4.50;2.25;;;;;;;19.66;52.74;100481.44;4835602;29;20050;-81
2023/05/26 08:27:08;;;;;;;4.75;2.10;;;;;;;19.55;53.26;100465.81;4838790;29;20436;-81
2023/05/26 08:29:36;;;;;;;5.88;2.22;;;;;;;19.48;53.13;100472.03;4831256;29;20109;-81
2023/05/26 08:32:06;;;;;;;5.78;2.63;;;;;;;19.43;54.77;100477.31;4835798;29;20125;-81
2023/05/26 08:34:36;;;;;;;3.10;1.90;;;;;;;19.39;54.63;100470.38;4835644;29;20053;-79
2023/05/26 08:37:05;;;;;;;3.30;2.08;;;;;;;19.36;54.39;100475.66;4837054;29;20057;-81
2023/05/26 08:39:34;;;;;;;5.80;3.00;;;;;;;19.33;54.18;100470.44;4834923;29;20046;-81
2023/05/26 08:42:05;;;;;;;9.48;2.15;;;;;;;19.25;55.50;100473.16;4836207;29;20497;-82
2023/05/26 08:44:49;;;;;;;5.28;2.25;;;;;;;19.18;56.00;100478.47;4835487;29;20046;-82
2023/05/26 08:47:19;;;;;;;6.15;2.88;;;;;;;19.13;55.42;100480.28;4833210;29;20053;-82
2023/05/26 08:49:55;;;;;;;4.88;2.08;;;;;;;19.09;57.13;100482.06;4833531;29;20062;-83
2023/05/26 08:52:24;;;;;;;3.33;2.10;;;;;;;19.07;58.52;100477.72;4840285;29;20050;-82
2023/05/26 08:54:53;;;;;;;6.50;2.20;;;;;;;19.05;57.60;100477.72;4847366;29;20062;-83
2023/05/26 08:57:22;;;;;;;5.80;2.78;;;;;;;19.00;59.77;100475.16;4851984;29;20654;-81
2023/05/26 08:59:50;;;;;;;4.50;2.15;;;;;;;18.98;59.48;100476.91;4845812;29;20049;-81
2023/05/26 09:02:19;;;;;;;3.80;1.85;;;;;;;18.94;60.32;100472.56;4838719;29;20053;-81
2023/05/26 09:04:50;;;;;;;4.80;2.13;;;;;;;18.88;58.49;100477.91;4840860;29;20509;-81
2023/05/26 09:07:19;;;;;;;4.15;2.20;;;;;;;18.85;57.13;100477.91;4840847;29;20536;-80
2023/05/26 09:09:48;;;;;;;5.97;2.53;;;;;;;18.82;56.79;100491.03;4834162;29;20064;-82
2023/05/26 09:12:17;;;;;;;7.20;2.60;;;;;;;18.72;60.27;100482.38;4834775;29;20054;-81
2023/05/26 09:14:46;;;;;;;3.97;2.15;;;;;;;18.58;58.76;100487.72;4842044;29;20046;-79
2023/05/26 09:17:15;;;;;;;6.95;2.38;;;;;;;18.55;58.64;100485.09;4847268;29;20065;-80
2023/05/26 09:19:43;;;;;;;3.83;2.17;;;;;;;18.54;58.73;100488.63;4831136;29;20067;-80
2023/05/26 09:22:13;;;;;;;3.75;2.20;;;;;;;18.53;58.08;100481.66;4835810;29;20564;-81
2023/05/26 09:24:47;;;;;;;7.25;2.30;;;;;;;18.53;59.61;100486.88;4837125;29;20045;-81
2023/05/26 09:27:20;;;;;;;4.88;2.20;;;;;;;18.48;59.76;100495.66;4837325;29;20114;-80
2023/05/26 09:29:53;;;;;;;6.63;2.70;;;;;;;18.41;59.92;100490.44;4832839;29;20061;-81
2023/05/26 09:32:26;;;;;;;4.13;2.33;;;;;;;18.36;60.14;100481.75;4837499;29;20451;-81
2023/05/26 09:35:03;;;;;;;4.57;2.00;;;;;;;18.32;60.15;100487.03;4840988;29;20050;-81
2023/05/26 09:37:45;;;;;;;4.97;2.72;;;;;;;18.24;60.50;100484.47;4838140;29;20061;-80
2023/05/26 09:40:14;;;;;;;;;;;;;;;18.22;61.04;100491.47;4837685;29;20058;-82
2023/05/26 09:42:49;;;;;;;5.45;2.15;;;;;;;18.15;63.02;100490.63;4842966;29;19939;-81
2023/05/26 09:45:18;;;;;;;5.35;2.38;;;;;;;18.10;63.60;100492.41;4843792;29;20092;-80
2023/05/26 09:47:46;;;;;;;4.63;2.00;;;;;;;18.08;63.24;100482.81;4841845;29;20054;-79
2023/05/26 09:50:15;;;;;;;4.15;2.08;;;;;;;18.05;62.27;100488.06;4847842;29;20045;-79
2023/05/26 09:52:48;;;;;;;4.63;2.40;;;;;;;17.99;61.42;100489.84;4842814;29;20055;-81
2023/05/26 09:55:17;;;;;;;4.97;2.60;;;;;;;17.94;62.48;100490.75;4859208;29;20145;-82
2023/05/26 09:57:47;;;;;;;6.25;2.88;;;;;;;17.86;63.58;100495.13;4862357;29;20046;-81
2023/05/26 10:00:18;;;;;;;4.25;2.55;;;;;;;17.82;63.33;100496.91;4854655;29;20152;-80
2023/05/26 10:02:48;;;;;;;5.47;2.40;;;;;;;17.78;63.33;100495.16;4870279;29;20117;-80
2023/05/26 10:05:19;;;;;;;5.30;2.08;;;;;;;17.75;66.69;100501.28;4853922;29;20060;-80
2023/05/26 10:07:50;;;;;;;5.97;2.35;;;;;;;17.70;66.90;100503.00;4860513;29;20053;-79
2023/05/26 10:10:19;;;;;;;3.70;2.20;;;;;;;17.67;66.27;100505.66;4859432;29;20060;-81
2023/05/26 10:12:48;;;;;;;6.45;2.35;;;;;;;17.59;69.22;100500.47;4860656;29;20053;-80
2023/05/26 10:15:17;;;;;;;6.28;2.78;;;;;;;17.53;69.73;100515.28;4858819;29;20121;-80
2023/05/26 10:17:47;;;;;;;6.07;2.15;;;;;;;17.52;68.60;100508.31;4857342;29;20080;-78
2023/05/26 10:20:16;;;;;;;6.30;2.40;;;;;;;17.48;66.89;100512.69;4860632;29;20607;-80
2023/05/26 10:22:52;;;;;;;5.57;2.40;;;;;;;17.45;66.61;100512.69;4848951;29;20057;-79
2023/05/26 10:25:25;;;;;;;6.28;2.65;;;;;;;17.45;66.72;100511.81;4868216;29;20061;-81
2023/05/26 10:28:03;;;;;;;2.85;2.10;;;;;;;17.42;66.00;100511.84;4855151;29;20734;-81
2023/05/26 10:30:33;;;;;;;4.40;2.38;;;;;;;17.41;66.25;100515.31;4853750;29;20420;-82
2023/05/26 10:33:10;;;;;;;5.18;2.88;;;;;;;17.40;66.56;100513.59;4855061;29;20049;-80
2023/05/26 10:35:39;;;;;;;5.03;2.75;;;;;;;17.33;66.72;100508.34;4856761;29;20061;-81
2023/05/26 10:38:16;;;;;;;4.05;2.47;;;;;;;17.27;67.33;100507.50;4857606;29;20461;-79
2023/05/26 10:40:45;;;;;;;3.67;2.30;;;;;;;17.21;67.39;100505.78;4852652;29;20528;-80
2023/05/26 10:43:19;;;;;;;4.72;2.53;;;;;;;17.19;68.87;100504.91;4857142;29;20046;-82
2023/05/26 10:45:48;;;;;;;4.95;2.75;;;;;;;17.17;68.92;100506.66;4857321;29;20061;-81
2023/05/26 10:48:19;;;;;;;6.40;2.80;;;;;;;17.17;67.18;100509.25;4859041;29;20087;-82
2023/05/26 10:51:07;;;;;;;4.70;2.10;;;;;;;17.15;67.14;100513.63;4855810;29;20562;-80
2023/05/26 10:53:42;;;;;;;3.95;2.20;;;;;;;17.12;67.22;100519.72;4856463;29;20049;-81
2023/05/26 10:56:13;;;;;;;4.53;2.28;;;;;;;17.06;67.11;100505.78;4856437;29;20053;-82
2023/05/26 10:58:46;;;;;;;7.47;2.85;;;;;;;16.99;69.43;100510.16;4855863;29;20129;-80
2023/05/26 11:01:16;;;;;;;5.32;2.38;;;;;;;16.95;68.00;100511.03;4850081;29;20061;-80
2023/05/26 11:03:46;;;;;;;8.73;3.08;;;;;;;16.89;70.88;100511.03;4851351;29;20413;-80
2023/05/26 11:06:17;;;;;;;5.57;2.63;;;;;;;16.82;69.80;100515.38;4859500;29;20061;-81
2023/05/26 11:08:51;;;;;;;4.65;2.65;;;;;;;16.71;70.05;100502.28;4849943;29;20084;-80
2023/05/26 11:11:29;;;;;;;3.38;2.20;;;;;;;16.71;70.35;100510.13;4858626;29;20053;-80
2023/05/26 11:14:06;;;;;;;4.53;2.70;;;;;;;16.70;70.48;100515.38;4858879;29;20041;-80
2023/05/26 11:16:36;;;;;;;5.57;2.40;;;;;;;16.64;69.99;100515.34;4855695;29;20070;-80
2023/05/26 11:19:07;;;;;;;4.43;2.92;;;;;;;16.58;70.21;100510.97;4848310;29;20149;-80
2023/05/26 11:21:37;;;;;;;5.15;2.40;;;;;;;16.52;70.86;100524.06;4867631;29;20059;-79
2023/05/26 11:24:08;;;;;;;5.85;2.80;;;;;;;16.49;72.25;100517.09;4852145;29;20542;-81
2023/05/26 11:26:37;;;;;;;6.68;3.25;;;;;;;16.44;73.26;100520.53;4864698;29;20632;-81
2023/05/26 11:29:06;;;;;;;7.60;3.10;;;;;;;16.40;74.38;100514.47;4856013;29;21216;-81
2023/05/26 11:31:36;;;;;;;9.23;3.00;;;;;;;16.33;75.79;100517.91;4853241;29;20444;-80
2023/05/26 11:34:05;;;;;;;11.20;3.33;;;;;;;16.30;74.75;100515.28;4857084;29;20050;-77
2023/05/26 11:36:33;;;;;;;5.45;2.58;;;;;;;16.29;76.25;100518.78;4859155;29;20054;-81